Time;durP1;ratioP1;P1;durP2;ratioP2;P2;SDS_P1;SDS_P2;PMS_P1;PMS_P2;Temp;Humidity;BMP_temperature;BMP_pressure;BME280_temperature;BME280_humidity;BME280_pressure;Samples;Min_cycle;Max_cycle;Signal;HPM_P1;HPM_P2
2019/12/07 00:00:38;;;;;;;3;1.75;;;;;;;6.21;58.67871;94984.98;;;;
2019/12/07 00:01:40;;;;;;;2.25;1.8;;;;;;;6.38;58.55273;94987.96;;;;
2019/12/07 00:02:41;;;;;;;2.25;1.8;;;;;;;6.38;58.55273;94987.96;;;;
2019/12/07 00:03:43;;;;;;;2.25;1.8;;;;;;;6.38;58.55273;94987.96;;;;
2019/12/07 00:04:44;;;;;;;2.25;1.8;;;;;;;6.38;58.55273;94987.96;;;;
2019/12/07 00:05:45;;;;;;;2.25;1.8;;;;;;;6.38;58.55273;94987.96;;;;
2019/12/07 00:06:46;;;;;;;2.25;1.8;;;;;;;6.38;58.55273;94987.96;;;;
2019/12/07 00:07:48;;;;;;;2.25;1.8;;;;;;;6.38;58.55273;94987.96;;;;
2019/12/07 00:08:49;;;;;;;2.25;1.8;;;;;;;6.38;58.55273;94987.96;;;;
2019/12/07 00:09:50;;;;;;;2.25;1.8;;;;;;;6.38;58.55273;94987.96;;;;
2019/12/07 00:10:51;;;;;;;2.25;1.8;;;;;;;6.38;58.55273;94987.96;;;;
2019/12/07 00:11:52;;;;;;;2.25;1.8;;;;;;;6.38;58.55273;94987.96;;;;
2019/12/07 00:12:53;;;;;;;3.3;1.9;;;;;;;6.6;58.52832;94976.76;;;;
2019/12/07 00:13:54;;;;;;;3.3;1.9;;;;;;;6.6;58.52832;94976.76;;;;
2019/12/07 00:14:55;;;;;;;3.3;1.9;;;;;;;6.6;58.52832;94976.76;;;;
2019/12/07 00:15:56;;;;;;;3.3;1.9;;;;;;;6.6;58.52832;94976.76;;;;
2019/12/07 00:16:58;;;;;;;3.3;1.9;;;;;;;6.6;58.52832;94976.76;;;;
2019/12/07 00:17:59;;;;;;;3.3;1.9;;;;;;;6.6;58.52832;94976.76;;;;
2019/12/07 00:19:00;;;;;;;3.3;1.9;;;;;;;6.6;58.52832;94976.76;;;;
2019/12/07 00:20:01;;;;;;;3.3;1.9;;;;;;;6.6;58.52832;94976.76;;;;
2019/12/07 00:21:02;;;;;;;3.3;1.9;;;;;;;6.6;58.52832;94976.76;;;;
2019/12/07 00:22:03;;;;;;;3.3;1.9;;;;;;;6.6;58.52832;94976.76;;;;
2019/12/07 00:23:05;;;;;;;3.25;2.35;;;;;;;6.71;58.82129;94970.68;;;;
2019/12/07 00:24:06;;;;;;;3.25;2.35;;;;;;;6.71;58.82129;94970.68;;;;
2019/12/07 00:25:07;;;;;;;3.25;2.35;;;;;;;6.71;58.82129;94970.68;;;;
2019/12/07 00:26:08;;;;;;;3.25;2.35;;;;;;;6.71;58.82129;94970.68;;;;
2019/12/07 00:27:09;;;;;;;3.25;2.35;;;;;;;6.71;58.82129;94970.68;;;;
2019/12/07 00:28:10;;;;;;;3.25;2.35;;;;;;;6.71;58.82129;94970.68;;;;
2019/12/07 00:29:11;;;;;;;3.25;2.35;;;;;;;6.71;58.82129;94970.68;;;;
2019/12/07 00:30:12;;;;;;;3.25;2.35;;;;;;;6.71;58.82129;94970.68;;;;
2019/12/07 00:31:13;;;;;;;3.25;2.35;;;;;;;6.71;58.82129;94970.68;;;;
2019/12/07 00:32:14;;;;;;;3.25;2.35;;;;;;;6.71;58.82129;94970.68;;;;
2019/12/07 00:33:15;;;;;;;3.25;2.35;;;;;;;6.71;58.82129;94970.68;;;;
2019/12/07 00:34:16;;;;;;;2;1.7;;;;;;;6.86;59.13965;94960.42;;;;
2019/12/07 00:35:18;;;;;;;2;1.7;;;;;;;6.86;59.13965;94960.42;;;;
2019/12/07 00:36:19;;;;;;;2;1.7;;;;;;;6.86;59.13965;94960.42;;;;
2019/12/07 00:37:20;;;;;;;2;1.7;;;;;;;6.86;59.13965;94960.42;;;;
2019/12/07 00:38:21;;;;;;;2;1.7;;;;;;;6.86;59.13965;94960.42;;;;
2019/12/07 00:39:22;;;;;;;2;1.7;;;;;;;6.86;59.13965;94960.42;;;;
2019/12/07 00:40:23;;;;;;;2;1.7;;;;;;;6.86;59.13965;94960.42;;;;
2019/12/07 00:41:24;;;;;;;2;1.7;;;;;;;6.86;59.13965;94960.42;;;;
2019/12/07 00:42:25;;;;;;;2;1.7;;;;;;;6.86;59.13965;94960.42;;;;
2019/12/07 00:43:26;;;;;;;2;1.7;;;;;;;6.86;59.13965;94960.42;;;;
2019/12/07 00:44:28;;;;;;;3.65;2;;;;;;;6.96;59.98535;94976.31;;;;
2019/12/07 00:45:29;;;;;;;3.65;2;;;;;;;6.96;59.98535;94976.31;;;;
2019/12/07 00:46:30;;;;;;;3.65;2;;;;;;;6.96;59.98535;94976.31;;;;
2019/12/07 00:47:31;;;;;;;3.65;2;;;;;;;6.96;59.98535;94976.31;;;;
2019/12/07 00:48:32;;;;;;;3.65;2;;;;;;;6.96;59.98535;94976.31;;;;
2019/12/07 00:49:33;;;;;;;3.65;2;;;;;;;6.96;59.98535;94976.31;;;;
2019/12/07 00:50:34;;;;;;;3.65;2;;;;;;;6.96;59.98535;94976.31;;;;
2019/12/07 00:51:35;;;;;;;3.65;2;;;;;;;6.96;59.98535;94976.31;;;;
2019/12/07 00:52:36;;;;;;;3.65;2;;;;;;;6.96;59.98535;94976.31;;;;
2019/12/07 00:53:37;;;;;;;3.65;2;;;;;;;6.96;59.98535;94976.31;;;;
2019/12/07 00:54:38;;;;;;;3.35;1.95;;;;;;;7.15;60.37402;94973.14;;;;
2019/12/07 00:55:40;;;;;;;3.35;1.95;;;;;;;7.15;60.37402;94973.14;;;;
2019/12/07 00:56:41;;;;;;;3.35;1.95;;;;;;;7.15;60.37402;94973.14;;;;
2019/12/07 00:57:42;;;;;;;3.35;1.95;;;;;;;7.15;60.37402;94973.14;;;;
2019/12/07 00:58:43;;;;;;;3.35;1.95;;;;;;;7.15;60.37402;94973.14;;;;
2019/12/07 00:59:44;;;;;;;3.35;1.95;;;;;;;7.15;60.37402;94973.14;;;;
2019/12/07 01:00:45;;;;;;;3.35;1.95;;;;;;;7.15;60.37402;94973.14;;;;
2019/12/07 01:01:46;;;;;;;3.35;1.95;;;;;;;7.15;60.37402;94973.14;;;;
2019/12/07 01:02:48;;;;;;;3.35;1.95;;;;;;;7.15;60.37402;94973.14;;;;
2019/12/07 01:03:49;;;;;;;3.35;1.95;;;;;;;7.15;60.37402;94973.14;;;;
2019/12/07 01:04:54;;;;;;;3.35;1.95;;;;;;;7.15;60.37402;94973.14;;;;
2019/12/07 01:06:49;;;;;;;2.45;2;;;;;;;7.28;61.12793;94968.47;;;;
2019/12/07 01:09:15;;;;;;;2.45;2;;;;;;;7.28;61.12793;94968.47;;;;
2019/12/07 01:10:17;;;;;;;2.45;2;;;;;;;7.28;61.12793;94968.47;;;;
2019/12/07 01:11:18;;;;;;;2.45;2;;;;;;;7.28;61.12793;94968.47;;;;
2019/12/07 01:12:19;;;;;;;2.45;2;;;;;;;7.28;61.12793;94968.47;;;;
2019/12/07 01:13:20;;;;;;;2.45;2;;;;;;;7.28;61.12793;94968.47;;;;
2019/12/07 01:14:21;;;;;;;2.45;2;;;;;;;7.28;61.12793;94968.47;;;;
2019/12/07 01:15:22;;;;;;;2.45;2;;;;;;;7.28;61.12793;94968.47;;;;
2019/12/07 01:16:23;;;;;;;4;2.2;;;;;;;7.5;61.57422;94985.47;;;;
2019/12/07 01:17:24;;;;;;;4;2.2;;;;;;;7.5;61.57422;94985.47;;;;
2019/12/07 01:18:25;;;;;;;4;2.2;;;;;;;7.5;61.57422;94985.47;;;;
2019/12/07 01:19:26;;;;;;;4;2.2;;;;;;;7.5;61.57422;94985.47;;;;
2019/12/07 01:20:28;;;;;;;4;2.2;;;;;;;7.5;61.57422;94985.47;;;;
2019/12/07 01:21:29;;;;;;;4;2.2;;;;;;;7.5;61.57422;94985.47;;;;
2019/12/07 01:22:30;;;;;;;4;2.2;;;;;;;7.5;61.57422;94985.47;;;;
2019/12/07 01:23:31;;;;;;;4;2.2;;;;;;;7.5;61.57422;94985.47;;;;
2019/12/07 01:24:32;;;;;;;4;2.2;;;;;;;7.5;61.57422;94985.47;;;;
2019/12/07 01:25:33;;;;;;;4;2.2;;;;;;;7.5;61.57422;94985.47;;;;
2019/12/07 01:26:34;;;;;;;5.100001;2.4;;;;;;;7.5;61.88477;94994.74;;;;
2019/12/07 01:27:35;;;;;;;5.100001;2.4;;;;;;;7.5;61.88477;94994.74;;;;
2019/12/07 01:28:36;;;;;;;5.100001;2.4;;;;;;;7.5;61.88477;94994.74;;;;
2019/12/07 01:29:37;;;;;;;5.100001;2.4;;;;;;;7.5;61.88477;94994.74;;;;
2019/12/07 01:30:39;;;;;;;5.100001;2.4;;;;;;;7.5;61.88477;94994.74;;;;
2019/12/07 01:31:40;;;;;;;5.100001;2.4;;;;;;;7.5;61.88477;94994.74;;;;
2019/12/07 01:32:41;;;;;;;5.100001;2.4;;;;;;;7.5;61.88477;94994.74;;;;
2019/12/07 01:33:42;;;;;;;5.100001;2.4;;;;;;;7.5;61.88477;94994.74;;;;
2019/12/07 01:34:43;;;;;;;5.100001;2.4;;;;;;;7.5;61.88477;94994.74;;;;
2019/12/07 01:35:44;;;;;;;5.100001;2.4;;;;;;;7.5;61.88477;94994.74;;;;
2019/12/07 01:36:45;;;;;;;5.100001;2.4;;;;;;;7.5;61.88477;94994.74;;;;
2019/12/07 01:37:46;;;;;;;3.15;2.25;;;;;;;7.37;63.57031;94972.09;;;;
2019/12/07 01:38:47;;;;;;;3.15;2.25;;;;;;;7.37;63.57031;94972.09;;;;
2019/12/07 01:39:48;;;;;;;3.15;2.25;;;;;;;7.37;63.57031;94972.09;;;;
2019/12/07 01:40:49;;;;;;;3.15;2.25;;;;;;;7.37;63.57031;94972.09;;;;
2019/12/07 01:41:51;;;;;;;3.15;2.25;;;;;;;7.37;63.57031;94972.09;;;;
2019/12/07 01:42:52;;;;;;;3.15;2.25;;;;;;;7.37;63.57031;94972.09;;;;
2019/12/07 01:43:53;;;;;;;3.15;2.25;;;;;;;7.37;63.57031;94972.09;;;;
2019/12/07 01:44:54;;;;;;;3.15;2.25;;;;;;;7.37;63.57031;94972.09;;;;
2019/12/07 01:45:55;;;;;;;3.15;2.25;;;;;;;7.37;63.57031;94972.09;;;;
2019/12/07 01:46:56;;;;;;;3.15;2.25;;;;;;;7.37;63.57031;94972.09;;;;
2019/12/07 01:47:57;;;;;;;3;2;;;;;;;7.1;65.27637;94979.29;;;;
2019/12/07 01:48:58;;;;;;;3;2;;;;;;;7.1;65.27637;94979.29;;;;
2019/12/07 01:49:59;;;;;;;3;2;;;;;;;7.1;65.27637;94979.29;;;;
2019/12/07 01:51:00;;;;;;;3;2;;;;;;;7.1;65.27637;94979.29;;;;
2019/12/07 01:52:02;;;;;;;3;2;;;;;;;7.1;65.27637;94979.29;;;;
2019/12/07 01:53:03;;;;;;;3;2;;;;;;;7.1;65.27637;94979.29;;;;
2019/12/07 01:54:04;;;;;;;3;2;;;;;;;7.1;65.27637;94979.29;;;;
2019/12/07 01:55:05;;;;;;;3;2;;;;;;;7.1;65.27637;94979.29;;;;
2019/12/07 01:56:06;;;;;;;3;2;;;;;;;7.1;65.27637;94979.29;;;;
2019/12/07 01:57:07;;;;;;;3;2;;;;;;;7.1;65.27637;94979.29;;;;
2019/12/07 01:58:08;;;;;;;3;2;;;;;;;7.1;65.27637;94979.29;;;;
2019/12/07 01:59:09;;;;;;;3.550001;2.1;;;;;;;6.88;66.20215;94967.22;;;;
2019/12/07 02:00:10;;;;;;;3.550001;2.1;;;;;;;6.88;66.20215;94967.22;;;;
2019/12/07 02:01:11;;;;;;;3.550001;2.1;;;;;;;6.88;66.20215;94967.22;;;;
2019/12/07 02:02:13;;;;;;;3.550001;2.1;;;;;;;6.88;66.20215;94967.22;;;;
2019/12/07 02:03:14;;;;;;;3.550001;2.1;;;;;;;6.88;66.20215;94967.22;;;;
2019/12/07 02:04:15;;;;;;;3.550001;2.1;;;;;;;6.88;66.20215;94967.22;;;;
2019/12/07 02:05:16;;;;;;;3.550001;2.1;;;;;;;6.88;66.20215;94967.22;;;;
2019/12/07 02:06:17;;;;;;;3.550001;2.1;;;;;;;6.88;66.20215;94967.22;;;;
2019/12/07 02:07:18;;;;;;;3.550001;2.1;;;;;;;6.88;66.20215;94967.22;;;;
2019/12/07 02:08:20;;;;;;;3.550001;2.1;;;;;;;6.88;66.20215;94967.22;;;;
2019/12/07 02:09:21;;;;;;;3.7;2.1;;;;;;;6.78;67.74902;94977.61;;;;
2019/12/07 02:10:22;;;;;;;3.7;2.1;;;;;;;6.78;67.74902;94977.61;;;;
2019/12/07 02:11:23;;;;;;;3.7;2.1;;;;;;;6.78;67.74902;94977.61;;;;
2019/12/07 02:12:24;;;;;;;3.7;2.1;;;;;;;6.78;67.74902;94977.61;;;;
2019/12/07 02:13:25;;;;;;;3.7;2.1;;;;;;;6.78;67.74902;94977.61;;;;
2019/12/07 02:14:26;;;;;;;3.7;2.1;;;;;;;6.78;67.74902;94977.61;;;;
2019/12/07 02:15:28;;;;;;;3.7;2.1;;;;;;;6.78;67.74902;94977.61;;;;
2019/12/07 02:16:29;;;;;;;3.7;2.1;;;;;;;6.78;67.74902;94977.61;;;;
2019/12/07 02:17:30;;;;;;;3.7;2.1;;;;;;;6.78;67.74902;94977.61;;;;
2019/12/07 02:18:31;;;;;;;3.7;2.1;;;;;;;6.78;67.74902;94977.61;;;;
2019/12/07 02:19:32;;;;;;;3.049999;2;;;;;;;6.92;69.68262;94984.63;;;;
2019/12/07 02:20:33;;;;;;;3.049999;2;;;;;;;6.92;69.68262;94984.63;;;;
2019/12/07 02:21:34;;;;;;;3.049999;2;;;;;;;6.92;69.68262;94984.63;;;;
2019/12/07 02:22:36;;;;;;;3.049999;2;;;;;;;6.92;69.68262;94984.63;;;;
2019/12/07 02:23:37;;;;;;;3.049999;2;;;;;;;6.92;69.68262;94984.63;;;;
2019/12/07 02:24:38;;;;;;;3.049999;2;;;;;;;6.92;69.68262;94984.63;;;;
2019/12/07 02:25:39;;;;;;;3.049999;2;;;;;;;6.92;69.68262;94984.63;;;;
2019/12/07 02:26:40;;;;;;;3.049999;2;;;;;;;6.92;69.68262;94984.63;;;;
2019/12/07 02:27:42;;;;;;;3.049999;2;;;;;;;6.92;69.68262;94984.63;;;;
2019/12/07 02:28:43;;;;;;;3.049999;2;;;;;;;6.92;69.68262;94984.63;;;;
2019/12/07 02:29:44;;;;;;;3.049999;2;;;;;;;6.92;69.68262;94984.63;;;;
2019/12/07 02:30:45;;;;;;;2.85;2.1;;;;;;;6.89;70.58203;94984.15;;;;
2019/12/07 02:31:46;;;;;;;2.85;2.1;;;;;;;6.89;70.58203;94984.15;;;;
2019/12/07 02:32:50;;;;;;;2.85;2.1;;;;;;;6.89;70.58203;94984.15;;;;
2019/12/07 02:34:13;;;;;;;2.85;2.1;;;;;;;6.89;70.58203;94984.15;;;;
2019/12/07 02:36:00;;;;;;;2.85;2.1;;;;;;;6.89;70.58203;94984.15;;;;
2019/12/07 02:37:53;;;;;;;2.85;2.1;;;;;;;6.89;70.58203;94984.15;;;;
2019/12/07 02:38:55;;;;;;;2.85;2.1;;;;;;;6.89;70.58203;94984.15;;;;
2019/12/07 02:39:56;;;;;;;2.85;2.1;;;;;;;6.89;70.58203;94984.15;;;;
2019/12/07 02:40:58;;;;;;;4.05;1.85;;;;;;;6.95;71.50488;94977.87;;;;
2019/12/07 02:41:59;;;;;;;4.05;1.85;;;;;;;6.95;71.50488;94977.87;;;;
2019/12/07 02:43:00;;;;;;;4.05;1.85;;;;;;;6.95;71.50488;94977.87;;;;
2019/12/07 02:44:06;;;;;;;4.05;1.85;;;;;;;6.95;71.50488;94977.87;;;;
2019/12/07 02:45:07;;;;;;;4.05;1.85;;;;;;;6.95;71.50488;94977.87;;;;
2019/12/07 02:46:08;;;;;;;4.05;1.85;;;;;;;6.95;71.50488;94977.87;;;;
2019/12/07 02:47:09;;;;;;;4.05;1.85;;;;;;;6.95;71.50488;94977.87;;;;
2019/12/07 02:48:10;;;;;;;4.05;1.85;;;;;;;6.95;71.50488;94977.87;;;;
2019/12/07 02:49:12;;;;;;;4.05;1.85;;;;;;;6.95;71.50488;94977.87;;;;
2019/12/07 02:50:13;;;;;;;4.05;1.85;;;;;;;6.95;71.50488;94977.87;;;;
2019/12/07 02:51:14;;;;;;;4.05;1.85;;;;;;;6.95;71.50488;94977.87;;;;
2019/12/07 02:52:15;;;;;;;2.85;1.9;;;;;;;7.01;71.95996;94981.45;;;;
2019/12/07 02:53:16;;;;;;;2.85;1.9;;;;;;;7.01;71.95996;94981.45;;;;
2019/12/07 02:54:17;;;;;;;2.85;1.9;;;;;;;7.01;71.95996;94981.45;;;;
2019/12/07 02:55:18;;;;;;;2.85;1.9;;;;;;;7.01;71.95996;94981.45;;;;
2019/12/07 02:56:20;;;;;;;2.85;1.9;;;;;;;7.01;71.95996;94981.45;;;;
2019/12/07 02:57:21;;;;;;;2.85;1.9;;;;;;;7.01;71.95996;94981.45;;;;
2019/12/07 02:58:22;;;;;;;2.85;1.9;;;;;;;7.01;71.95996;94981.45;;;;
2019/12/07 02:59:23;;;;;;;2.85;1.9;;;;;;;7.01;71.95996;94981.45;;;;
2019/12/07 03:00:25;;;;;;;2.85;1.9;;;;;;;7.01;71.95996;94981.45;;;;
2019/12/07 03:01:26;;;;;;;2.85;1.9;;;;;;;7.01;71.95996;94981.45;;;;
2019/12/07 03:02:27;;;;;;;3.5;1.8;;;;;;;7.19;72.0957;94965.36;;;;
2019/12/07 03:03:28;;;;;;;3.5;1.8;;;;;;;7.19;72.0957;94965.36;;;;
2019/12/07 03:04:29;;;;;;;3.5;1.8;;;;;;;7.19;72.0957;94965.36;;;;
2019/12/07 03:05:30;;;;;;;3.5;1.8;;;;;;;7.19;72.0957;94965.36;;;;
2019/12/07 03:06:31;;;;;;;3.5;1.8;;;;;;;7.19;72.0957;94965.36;;;;
2019/12/07 03:07:33;;;;;;;3.5;1.8;;;;;;;7.19;72.0957;94965.36;;;;
2019/12/07 03:08:34;;;;;;;3.5;1.8;;;;;;;7.19;72.0957;94965.36;;;;
2019/12/07 03:09:35;;;;;;;3.5;1.8;;;;;;;7.19;72.0957;94965.36;;;;
2019/12/07 03:10:36;;;;;;;3.5;1.8;;;;;;;7.19;72.0957;94965.36;;;;
2019/12/07 03:11:37;;;;;;;3.5;1.8;;;;;;;7.19;72.0957;94965.36;;;;
2019/12/07 03:12:38;;;;;;;3.55;1.6;;;;;;;7.3;72.30566;94951.58;;;;
2019/12/07 03:13:39;;;;;;;3.55;1.6;;;;;;;7.3;72.30566;94951.58;;;;
2019/12/07 03:14:41;;;;;;;3.55;1.6;;;;;;;7.3;72.30566;94951.58;;;;
2019/12/07 03:15:42;;;;;;;3.55;1.6;;;;;;;7.3;72.30566;94951.58;;;;
2019/12/07 03:16:43;;;;;;;3.55;1.6;;;;;;;7.3;72.30566;94951.58;;;;
2019/12/07 03:17:44;;;;;;;3.55;1.6;;;;;;;7.3;72.30566;94951.58;;;;
2019/12/07 03:18:45;;;;;;;3.55;1.6;;;;;;;7.3;72.30566;94951.58;;;;
2019/12/07 03:19:46;;;;;;;3.55;1.6;;;;;;;7.3;72.30566;94951.58;;;;
2019/12/07 03:20:47;;;;;;;3.55;1.6;;;;;;;7.3;72.30566;94951.58;;;;
2019/12/07 03:21:49;;;;;;;3.55;1.6;;;;;;;7.3;72.30566;94951.58;;;;
2019/12/07 03:22:50;;;;;;;3.55;1.6;;;;;;;7.3;72.30566;94951.58;;;;
2019/12/07 03:23:51;;;;;;;3.3;2;;;;;;;7.44;72.37207;94949.58;;;;
2019/12/07 03:24:52;;;;;;;3.3;2;;;;;;;7.44;72.37207;94949.58;;;;
2019/12/07 03:25:53;;;;;;;3.3;2;;;;;;;7.44;72.37207;94949.58;;;;
2019/12/07 03:26:55;;;;;;;3.3;2;;;;;;;7.44;72.37207;94949.58;;;;
2019/12/07 03:27:56;;;;;;;3.3;2;;;;;;;7.44;72.37207;94949.58;;;;
2019/12/07 03:28:57;;;;;;;3.3;2;;;;;;;7.44;72.37207;94949.58;;;;
2019/12/07 03:29:58;;;;;;;3.3;2;;;;;;;7.44;72.37207;94949.58;;;;
2019/12/07 03:30:59;;;;;;;3.3;2;;;;;;;7.44;72.37207;94949.58;;;;
2019/12/07 03:32:00;;;;;;;3.3;2;;;;;;;7.44;72.37207;94949.58;;;;
2019/12/07 03:33:01;;;;;;;3.3;2;;;;;;;7.44;72.37207;94949.58;;;;
2019/12/07 03:34:02;;;;;;;3.45;1.7;;;;;;;7.51;72.19141;94945.47;;;;
2019/12/07 03:35:03;;;;;;;3.45;1.7;;;;;;;7.51;72.19141;94945.47;;;;
2019/12/07 03:36:05;;;;;;;3.45;1.7;;;;;;;7.51;72.19141;94945.47;;;;
2019/12/07 03:37:06;;;;;;;3.45;1.7;;;;;;;7.51;72.19141;94945.47;;;;
2019/12/07 03:38:07;;;;;;;3.45;1.7;;;;;;;7.51;72.19141;94945.47;;;;
2019/12/07 03:39:08;;;;;;;3.45;1.7;;;;;;;7.51;72.19141;94945.47;;;;
2019/12/07 03:40:09;;;;;;;3.45;1.7;;;;;;;7.51;72.19141;94945.47;;;;
2019/12/07 03:41:10;;;;;;;3.45;1.7;;;;;;;7.51;72.19141;94945.47;;;;
2019/12/07 03:42:13;;;;;;;3.45;1.7;;;;;;;7.51;72.19141;94945.47;;;;
2019/12/07 03:43:16;;;;;;;3.45;1.7;;;;;;;7.51;72.19141;94945.47;;;;
2019/12/07 03:44:20;;;;;;;2.8;1.7;;;;;;;7.63;71.78711;94944.06;;;;
2019/12/07 03:45:22;;;;;;;2.8;1.7;;;;;;;7.63;71.78711;94944.06;;;;
2019/12/07 03:46:36;;;;;;;2.8;1.7;;;;;;;7.63;71.78711;94944.06;;;;
2019/12/07 03:47:37;;;;;;;2.8;1.7;;;;;;;7.63;71.78711;94944.06;;;;
2019/12/07 03:48:39;;;;;;;2.8;1.7;;;;;;;7.63;71.78711;94944.06;;;;
2019/12/07 03:49:41;;;;;;;2.8;1.7;;;;;;;7.63;71.78711;94944.06;;;;
2019/12/07 03:50:42;;;;;;;2.8;1.7;;;;;;;7.63;71.78711;94944.06;;;;
2019/12/07 03:51:49;;;;;;;2.8;1.7;;;;;;;7.63;71.78711;94944.06;;;;
2019/12/07 03:52:54;;;;;;;2.8;1.7;;;;;;;7.63;71.78711;94944.06;;;;
2019/12/07 03:54:04;;;;;;;2.8;1.7;;;;;;;7.63;71.78711;94944.06;;;;
2019/12/07 03:55:05;;;;;;;2.4;1.6;;;;;;;7.66;71.37793;94957.86;;;;
2019/12/07 03:56:06;;;;;;;2.4;1.6;;;;;;;7.66;71.37793;94957.86;;;;
2019/12/07 03:57:09;;;;;;;2.4;1.6;;;;;;;7.66;71.37793;94957.86;;;;
2019/12/07 03:58:10;;;;;;;2.4;1.6;;;;;;;7.66;71.37793;94957.86;;;;
2019/12/07 03:59:11;;;;;;;2.4;1.6;;;;;;;7.66;71.37793;94957.86;;;;
2019/12/07 04:00:13;;;;;;;2.4;1.6;;;;;;;7.66;71.37793;94957.86;;;;
2019/12/07 04:01:14;;;;;;;2.4;1.6;;;;;;;7.66;71.37793;94957.86;;;;
2019/12/07 04:02:15;;;;;;;2.4;1.6;;;;;;;7.66;71.37793;94957.86;;;;
2019/12/07 04:03:16;;;;;;;2.4;1.6;;;;;;;7.66;71.37793;94957.86;;;;
2019/12/07 04:04:18;;;;;;;2.4;1.6;;;;;;;7.66;71.37793;94957.86;;;;
2019/12/07 04:05:20;;;;;;;2.4;1.6;;;;;;;7.66;71.37793;94957.86;;;;
2019/12/07 04:06:21;;;;;;;2.25;1.5;;;;;;;7.73;71.30371;94944.37;;;;
2019/12/07 04:07:22;;;;;;;2.25;1.5;;;;;;;7.73;71.30371;94944.37;;;;
2019/12/07 04:08:23;;;;;;;2.25;1.5;;;;;;;7.73;71.30371;94944.37;;;;
2019/12/07 04:09:25;;;;;;;2.25;1.5;;;;;;;7.73;71.30371;94944.37;;;;
2019/12/07 04:10:26;;;;;;;2.25;1.5;;;;;;;7.73;71.30371;94944.37;;;;
2019/12/07 04:11:27;;;;;;;2.25;1.5;;;;;;;7.73;71.30371;94944.37;;;;
2019/12/07 04:12:28;;;;;;;2.25;1.5;;;;;;;7.73;71.30371;94944.37;;;;
2019/12/07 04:13:29;;;;;;;2.25;1.5;;;;;;;7.73;71.30371;94944.37;;;;
2019/12/07 04:14:30;;;;;;;2.25;1.5;;;;;;;7.73;71.30371;94944.37;;;;
2019/12/07 04:15:31;;;;;;;2.25;1.5;;;;;;;7.73;71.30371;94944.37;;;;
2019/12/07 04:17:08;;;;;;;3.5;1.7;;;;;;;7.77;70.9375;94944.22;;;;
2019/12/07 04:18:10;;;;;;;3.5;1.7;;;;;;;7.77;70.9375;94944.22;;;;
2019/12/07 04:19:11;;;;;;;3.5;1.7;;;;;;;7.77;70.9375;94944.22;;;;
2019/12/07 04:20:12;;;;;;;3.5;1.7;;;;;;;7.77;70.9375;94944.22;;;;
2019/12/07 04:21:13;;;;;;;3.5;1.7;;;;;;;7.77;70.9375;94944.22;;;;
2019/12/07 04:22:14;;;;;;;3.5;1.7;;;;;;;7.77;70.9375;94944.22;;;;
2019/12/07 04:23:16;;;;;;;3.5;1.7;;;;;;;7.77;70.9375;94944.22;;;;
2019/12/07 04:24:17;;;;;;;3.5;1.7;;;;;;;7.77;70.9375;94944.22;;;;
2019/12/07 04:25:18;;;;;;;3.5;1.7;;;;;;;7.77;70.9375;94944.22;;;;
2019/12/07 04:26:19;;;;;;;3.5;1.7;;;;;;;7.77;70.9375;94944.22;;;;
2019/12/07 04:27:20;;;;;;;3.7;1.6;;;;;;;7.83;70.73438;94933.88;;;;
2019/12/07 04:28:21;;;;;;;3.7;1.6;;;;;;;7.83;70.73438;94933.88;;;;
2019/12/07 04:29:22;;;;;;;3.7;1.6;;;;;;;7.83;70.73438;94933.88;;;;
2019/12/07 04:31:01;;;;;;;3.7;1.6;;;;;;;7.83;70.73438;94933.88;;;;
2019/12/07 04:32:03;;;;;;;3.7;1.6;;;;;;;7.83;70.73438;94933.88;;;;
2019/12/07 04:33:05;;;;;;;3.7;1.6;;;;;;;7.83;70.73438;94933.88;;;;
2019/12/07 04:34:06;;;;;;;3.7;1.6;;;;;;;7.83;70.73438;94933.88;;;;
2019/12/07 04:35:07;;;;;;;3.7;1.6;;;;;;;7.83;70.73438;94933.88;;;;
2019/12/07 04:36:08;;;;;;;3.7;1.6;;;;;;;7.83;70.73438;94933.88;;;;
2019/12/07 04:37:09;;;;;;;3.7;1.6;;;;;;;7.83;70.73438;94933.88;;;;
2019/12/07 04:38:12;;;;;;;2.25;1.55;;;;;;;7.7;70.57422;94956.89;;;;
2019/12/07 04:39:13;;;;;;;2.25;1.55;;;;;;;7.7;70.57422;94956.89;;;;
2019/12/07 04:40:14;;;;;;;2.25;1.55;;;;;;;7.7;70.57422;94956.89;;;;
2019/12/07 04:41:15;;;;;;;2.25;1.55;;;;;;;7.7;70.57422;94956.89;;;;
2019/12/07 04:42:16;;;;;;;2.25;1.55;;;;;;;7.7;70.57422;94956.89;;;;
2019/12/07 04:43:17;;;;;;;2.25;1.55;;;;;;;7.7;70.57422;94956.89;;;;
2019/12/07 04:44:18;;;;;;;2.25;1.55;;;;;;;7.7;70.57422;94956.89;;;;
2019/12/07 04:45:19;;;;;;;2.25;1.55;;;;;;;7.7;70.57422;94956.89;;;;
2019/12/07 04:46:20;;;;;;;2.25;1.55;;;;;;;7.7;70.57422;94956.89;;;;
2019/12/07 04:47:21;;;;;;;2.25;1.55;;;;;;;7.7;70.57422;94956.89;;;;
2019/12/07 04:48:23;;;;;;;1.6;1.5;;;;;;;7.5;70.80957;94963.85;;;;
2019/12/07 04:49:24;;;;;;;1.6;1.5;;;;;;;7.5;70.80957;94963.85;;;;
2019/12/07 04:50:25;;;;;;;1.6;1.5;;;;;;;7.5;70.80957;94963.85;;;;
2019/12/07 04:51:26;;;;;;;1.6;1.5;;;;;;;7.5;70.80957;94963.85;;;;
2019/12/07 04:52:27;;;;;;;1.6;1.5;;;;;;;7.5;70.80957;94963.85;;;;
2019/12/07 04:53:28;;;;;;;1.6;1.5;;;;;;;7.5;70.80957;94963.85;;;;
2019/12/07 04:54:29;;;;;;;1.6;1.5;;;;;;;7.5;70.80957;94963.85;;;;
2019/12/07 04:55:30;;;;;;;1.6;1.5;;;;;;;7.5;70.80957;94963.85;;;;
2019/12/07 04:56:31;;;;;;;1.6;1.5;;;;;;;7.5;70.80957;94963.85;;;;
2019/12/07 04:57:32;;;;;;;1.6;1.5;;;;;;;7.5;70.80957;94963.85;;;;
2019/12/07 04:58:34;;;;;;;1.6;1.5;;;;;;;7.5;70.80957;94963.85;;;;
2019/12/07 04:59:35;;;;;;;3;1.6;;;;;;;7.47;70.72949;94995.72;;;;
2019/12/07 05:00:36;;;;;;;3;1.6;;;;;;;7.47;70.72949;94995.72;;;;
2019/12/07 05:01:37;;;;;;;3;1.6;;;;;;;7.47;70.72949;94995.72;;;;
2019/12/07 05:02:38;;;;;;;3;1.6;;;;;;;7.47;70.72949;94995.72;;;;
2019/12/07 05:03:39;;;;;;;3;1.6;;;;;;;7.47;70.72949;94995.72;;;;
2019/12/07 05:04:40;;;;;;;3;1.6;;;;;;;7.47;70.72949;94995.72;;;;
2019/12/07 05:05:41;;;;;;;3;1.6;;;;;;;7.47;70.72949;94995.72;;;;
2019/12/07 05:06:42;;;;;;;3;1.6;;;;;;;7.47;70.72949;94995.72;;;;
2019/12/07 05:07:43;;;;;;;3;1.6;;;;;;;7.47;70.72949;94995.72;;;;
2019/12/07 05:08:44;;;;;;;3;1.6;;;;;;;7.47;70.72949;94995.72;;;;
2019/12/07 05:09:46;;;;;;;3.9;1.65;;;;;;;7.63;70.5332;94986.54;;;;
2019/12/07 05:10:47;;;;;;;3.9;1.65;;;;;;;7.63;70.5332;94986.54;;;;
2019/12/07 05:11:48;;;;;;;3.9;1.65;;;;;;;7.63;70.5332;94986.54;;;;
2019/12/07 05:12:49;;;;;;;3.9;1.65;;;;;;;7.63;70.5332;94986.54;;;;
2019/12/07 05:13:50;;;;;;;3.9;1.65;;;;;;;7.63;70.5332;94986.54;;;;
2019/12/07 05:14:51;;;;;;;3.9;1.65;;;;;;;7.63;70.5332;94986.54;;;;
2019/12/07 05:15:52;;;;;;;3.9;1.65;;;;;;;7.63;70.5332;94986.54;;;;
2019/12/07 05:16:53;;;;;;;3.9;1.65;;;;;;;7.63;70.5332;94986.54;;;;
2019/12/07 05:17:54;;;;;;;3.9;1.65;;;;;;;7.63;70.5332;94986.54;;;;
2019/12/07 05:18:55;;;;;;;3.9;1.65;;;;;;;7.63;70.5332;94986.54;;;;
2019/12/07 05:19:56;;;;;;;2.8;1.6;;;;;;;7.77;70.22363;94986.8;;;;
2019/12/07 05:20:57;;;;;;;2.8;1.6;;;;;;;7.77;70.22363;94986.8;;;;
2019/12/07 05:21:59;;;;;;;2.8;1.6;;;;;;;7.77;70.22363;94986.8;;;;
2019/12/07 05:23:00;;;;;;;2.8;1.6;;;;;;;7.77;70.22363;94986.8;;;;
2019/12/07 05:24:01;;;;;;;2.8;1.6;;;;;;;7.77;70.22363;94986.8;;;;
2019/12/07 05:25:02;;;;;;;2.8;1.6;;;;;;;7.77;70.22363;94986.8;;;;
2019/12/07 05:26:03;;;;;;;2.8;1.6;;;;;;;7.77;70.22363;94986.8;;;;
2019/12/07 05:27:04;;;;;;;2.8;1.6;;;;;;;7.77;70.22363;94986.8;;;;
2019/12/07 05:28:05;;;;;;;2.8;1.6;;;;;;;7.77;70.22363;94986.8;;;;
2019/12/07 05:29:06;;;;;;;2.8;1.6;;;;;;;7.77;70.22363;94986.8;;;;
2019/12/07 05:30:07;;;;;;;2.8;1.6;;;;;;;7.77;70.22363;94986.8;;;;
2019/12/07 05:31:09;;;;;;;1.5;1.4;;;;;;;7.89;69.95703;94993.87;;;;
2019/12/07 05:32:10;;;;;;;1.5;1.4;;;;;;;7.89;69.95703;94993.87;;;;
2019/12/07 05:33:11;;;;;;;1.5;1.4;;;;;;;7.89;69.95703;94993.87;;;;
2019/12/07 05:34:12;;;;;;;1.5;1.4;;;;;;;7.89;69.95703;94993.87;;;;
2019/12/07 05:35:13;;;;;;;1.5;1.4;;;;;;;7.89;69.95703;94993.87;;;;
2019/12/07 05:36:14;;;;;;;1.5;1.4;;;;;;;7.89;69.95703;94993.87;;;;
2019/12/07 05:37:15;;;;;;;1.5;1.4;;;;;;;7.89;69.95703;94993.87;;;;
2019/12/07 05:38:16;;;;;;;1.5;1.4;;;;;;;7.89;69.95703;94993.87;;;;
2019/12/07 05:39:17;;;;;;;1.5;1.4;;;;;;;7.89;69.95703;94993.87;;;;
2019/12/07 05:40:18;;;;;;;1.5;1.4;;;;;;;7.89;69.95703;94993.87;;;;
2019/12/07 05:41:20;;;;;;;2.8;1.5;;;;;;;7.96;69.7334;95022.42;;;;
2019/12/07 05:42:21;;;;;;;2.8;1.5;;;;;;;7.96;69.7334;95022.42;;;;
2019/12/07 05:43:22;;;;;;;2.8;1.5;;;;;;;7.96;69.7334;95022.42;;;;
2019/12/07 05:44:23;;;;;;;2.8;1.5;;;;;;;7.96;69.7334;95022.42;;;;
2019/12/07 05:45:24;;;;;;;2.8;1.5;;;;;;;7.96;69.7334;95022.42;;;;
2019/12/07 05:46:25;;;;;;;2.8;1.5;;;;;;;7.96;69.7334;95022.42;;;;
2019/12/07 05:47:26;;;;;;;2.8;1.5;;;;;;;7.96;69.7334;95022.42;;;;
2019/12/07 05:48:27;;;;;;;2.8;1.5;;;;;;;7.96;69.7334;95022.42;;;;
2019/12/07 05:49:28;;;;;;;2.8;1.5;;;;;;;7.96;69.7334;95022.42;;;;
2019/12/07 05:50:29;;;;;;;2.8;1.5;;;;;;;7.96;69.7334;95022.42;;;;
2019/12/07 05:51:30;;;;;;;2.8;1.5;;;;;;;7.96;69.7334;95022.42;;;;
2019/12/07 05:52:31;;;;;;;3.25;1.75;;;;;;;8.13;69.76074;95023.42;;;;
2019/12/07 05:53:33;;;;;;;3.25;1.75;;;;;;;8.13;69.76074;95023.42;;;;
2019/12/07 05:54:34;;;;;;;3.25;1.75;;;;;;;8.13;69.76074;95023.42;;;;
2019/12/07 05:55:35;;;;;;;3.25;1.75;;;;;;;8.13;69.76074;95023.42;;;;
2019/12/07 05:56:55;;;;;;;3.25;1.75;;;;;;;8.13;69.76074;95023.42;;;;
2019/12/07 05:57:57;;;;;;;3.25;1.75;;;;;;;8.13;69.76074;95023.42;;;;
2019/12/07 05:58:58;;;;;;;3.25;1.75;;;;;;;8.13;69.76074;95023.42;;;;
2019/12/07 05:59:59;;;;;;;3.25;1.75;;;;;;;8.13;69.76074;95023.42;;;;
2019/12/07 06:01:01;;;;;;;3.25;1.75;;;;;;;8.13;69.76074;95023.42;;;;
2019/12/07 06:02:03;;;;;;;3.25;1.75;;;;;;;8.13;69.76074;95023.42;;;;
2019/12/07 06:03:04;;;;;;;2;1.7;;;;;;;8.24;69.89453;95040.69;;;;
2019/12/07 06:04:24;;;;;;;2;1.7;;;;;;;8.24;69.89453;95040.69;;;;
2019/12/07 06:05:26;;;;;;;2;1.7;;;;;;;8.24;69.89453;95040.69;;;;
2019/12/07 06:06:34;;;;;;;2;1.7;;;;;;;8.24;69.89453;95040.69;;;;
2019/12/07 06:07:41;;;;;;;2;1.7;;;;;;;8.24;69.89453;95040.69;;;;